Time;durP1;ratioP1;P1;durP2;ratioP2;P2;SDS_P1;SDS_P2;PMS_P1;PMS_P2;Temp;Humidity;BMP_temperature;BMP_pressure;BME280_temperature;BME280_humidity;BME280_pressure;Samples;Min_cycle;Max_cycle;Signal;HPM_P1;HPM_P2
2020/12/30 00:00:24;;;;;;;8.30;5.40;;;4.10;99.90;;;;;;5057703;28;20490;-83
2020/12/30 00:02:51;;;;;;;10.40;5.40;;;4.20;99.90;;;;;;5048809;28;20071;-83
2020/12/30 00:05:18;;;;;;;9.60;5.82;;;4.20;99.90;;;;;;5025935;28;20242;-83
2020/12/30 00:07:45;;;;;;;8.50;5.57;;;4.00;99.90;;;;;;5023931;28;20124;-83
2020/12/30 00:10:16;;;;;;;7.97;5.40;;;4.00;99.90;;;;;;5030217;28;20046;-83
2020/12/30 00:12:43;;;;;;;10.98;6.03;;;3.70;99.90;;;;;;5029044;28;20045;-83
2020/12/30 00:15:10;;;;;;;8.70;6.20;;;3.60;99.90;;;;;;5038615;28;20068;-83
2020/12/30 00:17:40;;;;;;;7.68;5.63;;;3.40;99.90;;;;;;5038329;28;20045;-83
2020/12/30 00:20:08;;;;;;;8.45;5.63;;;3.40;99.90;;;;;;5037852;28;20081;-83
2020/12/30 00:22:34;;;;;;;8.52;6.30;;;3.40;99.90;;;;;;5018385;28;20061;-83
2020/12/30 00:25:01;;;;;;;10.13;6.40;;;3.40;99.90;;;;;;5030837;28;20046;-83
2020/12/30 00:27:28;;;;;;;8.65;5.90;;;3.40;99.90;;;;;;5038785;28;20084;-83
2020/12/30 00:29:54;;;;;;;10.45;6.38;;;3.40;99.90;;;;;;5037840;28;20097;-83
2020/12/30 00:32:21;;;;;;;8.70;6.18;;;3.40;99.90;;;;;;5037374;28;20053;-83
2020/12/30 00:34:49;;;;;;;9.50;6.00;;;3.40;99.90;;;;;;5038077;28;20064;-83
2020/12/30 00:37:16;;;;;;;9.10;6.47;;;3.40;99.90;;;;;;5037030;28;20447;-83
2020/12/30 00:39:42;;;;;;;8.60;6.25;;;3.40;99.90;;;;;;5037530;28;20069;-83
2020/12/30 00:42:09;;;;;;;10.85;6.30;;;3.40;99.90;;;;;;5036503;28;20092;-83
2020/12/30 00:44:36;;;;;;;10.48;6.45;;;3.30;99.90;;;;;;5037159;28;20053;-83
2020/12/30 00:47:02;;;;;;;10.55;5.72;;;3.40;99.90;;;;;;5032852;28;20052;-83
2020/12/30 00:49:29;;;;;;;8.80;5.90;;;3.40;99.90;;;;;;5018064;28;20493;-83
2020/12/30 00:51:57;;;;;;;9.20;5.30;;;3.40;99.90;;;;;;5037364;28;20057;-82
2020/12/30 00:54:25;;;;;;;7.03;5.50;;;3.40;99.90;;;;;;5037167;28;20096;-83
2020/12/30 00:56:52;;;;;;;7.65;5.22;;;3.50;99.90;;;;;;5037039;28;20084;-82
2020/12/30 00:59:19;;;;;;;8.75;6.03;;;3.60;99.90;;;;;;5035981;28;20057;-82
2020/12/30 01:01:51;;;;;;;8.77;5.40;;;3.70;99.90;;;;;;5031334;28;20459;-83
2020/12/30 01:04:19;;;;;;;8.80;5.60;;;3.70;99.90;;;;;;5024225;28;20049;-82
2020/12/30 01:06:49;;;;;;;7.97;5.80;;;3.70;99.90;;;;;;5021431;28;20058;-83
2020/12/30 01:09:19;;;;;;;8.10;5.53;;;3.70;99.90;;;;;;5035597;28;20045;-83
2020/12/30 01:11:46;;;;;;;8.32;5.22;;;3.80;99.90;;;;;;5022010;28;20084;-83
2020/12/30 01:14:13;;;;;;;9.82;5.72;;;3.80;99.90;;;;;;5030874;28;20048;-83
2020/12/30 01:16:40;;;;;;;8.65;5.82;;;3.90;99.90;;;;;;5036754;28;20109;-83
2020/12/30 01:19:09;;;;;;;9.52;5.97;;;4.00;99.90;;;;;;5035604;28;20046;-83
2020/12/30 01:21:40;;;;;;;7.93;5.68;;;4.10;99.90;;;;;;5026265;28;20049;-82
2020/12/30 01:24:06;;;;;;;7.15;4.80;;;4.10;99.90;;;;;;5031504;28;20050;-83
2020/12/30 01:26:36;;;;;;;7.63;5.25;;;4.10;99.90;;;;;;5034158;28;20065;-83
2020/12/30 01:29:02;;;;;;;;;;;4.10;99.90;;;;;;5033851;28;20521;-83
2020/12/30 01:31:29;;;;;;;7.20;4.75;;;4.00;99.90;;;;;;5035515;28;19957;-83
2020/12/30 01:33:56;;;;;;;7.65;5.60;;;4.10;99.90;;;;;;5034997;28;20096;-83
2020/12/30 01:36:23;;;;;;;8.65;5.25;;;4.10;99.90;;;;;;5032411;28;20060;-83
2020/12/30 01:38:51;;;;;;;7.05;5.05;;;4.10;99.90;;;;;;5031826;28;20045;-83
2020/12/30 01:41:18;;;;;;;8.95;5.90;;;4.10;99.90;;;;;;5036917;28;20046;-83
2020/12/30 01:43:57;;;;;;;8.23;5.50;;;4.20;99.90;;;;;;5033448;28;20131;-83
2020/12/30 01:46:34;;;;;;;7.93;5.72;;;4.10;99.90;;;;;;5039297;28;20058;-83
2020/12/30 01:49:02;;;;;;;9.70;5.85;;;4.30;99.90;;;;;;5032358;28;20077;-83
2020/12/30 01:51:30;;;;;;;10.18;6.10;;;4.10;99.90;;;;;;5020173;28;20084;-83
2020/12/30 01:53:58;;;;;;;9.32;6.15;;;4.20;99.90;;;;;;5039584;28;20053;-83
2020/12/30 01:56:28;;;;;;;8.43;6.18;;;4.30;99.90;;;;;;5039443;28;20063;-83
2020/12/30 01:58:58;;;;;;;10.95;6.35;;;4.30;99.90;;;;;;5039398;28;20431;-83
2020/12/30 02:01:27;;;;;;;;;;;4.30;99.90;;;;;;5026104;28;20432;-83
2020/12/30 02:03:57;;;;;;;9.98;5.93;;;4.40;99.90;;;;;;5020007;28;19921;-83
2020/12/30 02:07:53;;;;;;;11.20;6.43;;;4.40;99.90;;;;;;5090079;27;20532;-71
2020/12/30 02:10:20;;;;;;;10.48;5.88;;;4.40;99.90;;;;;;5090613;28;20044;-72
2020/12/30 02:12:47;;;;;;;9.13;5.65;;;4.40;99.90;;;;;;5090337;28;20557;-71
2020/12/30 02:15:23;;;;;;;8.75;6.65;;;4.30;99.90;;;;;;5090364;28;20051;-71
2020/12/30 02:17:50;;;;;;;8.32;6.00;;;4.30;99.90;;;;;;5090612;28;20070;-71
2020/12/30 02:20:17;;;;;;;9.15;5.90;;;4.30;99.90;;;;;;5090265;28;20051;-71
2020/12/30 02:22:47;;;;;;;9.40;6.32;;;4.40;99.90;;;;;;5090222;28;20051;-71
2020/12/30 02:25:14;;;;;;;8.45;6.20;;;4.30;99.90;;;;;;5072958;28;20045;-71
2020/12/30 02:27:41;;;;;;;7.80;5.97;;;4.30;99.90;;;;;;5069602;28;20551;-71
2020/12/30 02:30:07;;;;;;;10.23;6.45;;;4.20;99.90;;;;;;5069995;28;20481;-71
2020/12/30 02:32:34;;;;;;;8.63;6.05;;;4.10;99.90;;;;;;5070065;28;20055;-71
2020/12/30 02:35:01;;;;;;;9.38;6.20;;;4.10;99.90;;;;;;5085472;28;20048;-71
2020/12/30 02:37:30;;;;;;;9.85;6.50;;;4.10;99.90;;;;;;5075894;28;20049;-71
2020/12/30 02:39:58;;;;;;;8.30;6.37;;;4.10;99.90;;;;;;5074274;28;20048;-71
2020/12/30 02:42:27;;;;;;;11.50;7.70;;;4.20;99.90;;;;;;5078232;28;20052;-71
2020/12/30 02:44:59;;;;;;;10.45;7.35;;;4.20;99.90;;;;;;5089771;28;20059;-71
2020/12/30 02:47:27;;;;;;;8.20;6.60;;;4.30;99.90;;;;;;5073815;28;20048;-71
2020/12/30 02:49:53;;;;;;;8.93;6.93;;;4.30;99.90;;;;;;5070334;28;20560;-71
2020/12/30 02:52:20;;;;;;;9.45;6.78;;;4.30;99.90;;;;;;5083609;28;20464;-72
2020/12/30 02:54:46;;;;;;;9.98;6.97;;;4.30;99.90;;;;;;5072860;28;20049;-72
2020/12/30 02:57:13;;;;;;;11.43;7.45;;;4.30;99.90;;;;;;5068944;28;20052;-72
2020/12/30 02:59:43;;;;;;;10.38;6.97;;;4.30;99.90;;;;;;5072833;28;20102;-72
2020/12/30 03:02:09;;;;;;;10.27;7.55;;;4.20;99.90;;;;;;5071582;28;20087;-72
2020/12/30 03:04:36;;;;;;;10.70;7.53;;;4.20;99.90;;;;;;5075271;28;20420;-72
2020/12/30 03:07:02;;;;;;;11.15;7.30;;;4.30;99.90;;;;;;5085049;28;20045;-71
2020/12/30 03:09:29;;;;;;;10.63;7.93;;;4.20;99.90;;;;;;5078133;28;20436;-71
2020/12/30 03:11:55;;;;;;;13.00;8.43;;;4.10;99.90;;;;;;5072310;28;20052;-72
2020/12/30 03:14:22;;;;;;;13.23;8.85;;;4.10;99.90;;;;;;5088929;28;20047;-72
2020/12/30 03:16:49;;;;;;;10.73;7.70;;;4.00;99.90;;;;;;5079008;28;20076;-72
2020/12/30 03:19:16;;;;;;;15.52;9.23;;;4.00;99.90;;;;;;5068475;28;20106;-72
2020/12/30 03:21:43;;;;;;;14.30;9.05;;;3.90;99.90;;;;;;5058933;28;20049;-72
2020/12/30 03:24:09;;;;;;;13.10;8.77;;;3.80;99.90;;;;;;5069770;28;20045;-72
2020/12/30 03:26:36;;;;;;;16.10;9.93;;;3.80;99.90;;;;;;5055461;28;20049;-72
2020/12/30 03:29:03;;;;;;;14.25;9.27;;;3.80;99.90;;;;;;5056012;28;20053;-72
2020/12/30 03:31:30;;;;;;;16.65;10.48;;;3.70;99.90;;;;;;5075586;28;20056;-72
2020/12/30 03:33:58;;;;;;;13.10;9.80;;;3.70;99.90;;;;;;5071995;28;20068;-72
2020/12/30 03:36:25;;;;;;;15.75;9.85;;;3.50;99.90;;;;;;5062947;28;20037;-72
2020/12/30 03:38:51;;;;;;;16.10;10.13;;;3.50;99.90;;;;;;5060566;28;20049;-72
2020/12/30 03:41:18;;;;;;;15.93;10.77;;;3.40;99.90;;;;;;5055201;28;20048;-72
2020/12/30 03:43:45;;;;;;;15.27;10.35;;;3.30;99.90;;;;;;5066627;28;20528;-72
2020/12/30 03:46:11;;;;;;;18.85;12.10;;;3.20;99.90;;;;;;5074058;28;20513;-72
2020/12/30 03:48:38;;;;;;;19.48;12.45;;;3.10;99.90;;;;;;5068079;28;20060;-72
2020/12/30 03:51:11;;;;;;;18.80;12.40;;;3.10;99.90;;;;;;5074891;28;20102;-71
2020/12/30 03:53:37;;;;;;;23.75;12.32;;;3.00;99.90;;;;;;5057291;28;20202;-71
2020/12/30 03:56:04;;;;;;;21.02;12.25;;;3.00;99.90;;;;;;5055184;28;20366;-71
2020/12/30 03:58:31;;;;;;;22.73;13.55;;;3.00;99.90;;;;;;5054991;28;20072;-72
2020/12/30 04:00:57;;;;;;;20.75;13.00;;;3.00;99.90;;;;;;5055077;28;20053;-72
2020/12/30 04:03:24;;;;;;;18.02;11.45;;;3.00;99.90;;;;;;5072328;28;20550;-72
2020/12/30 04:05:51;;;;;;;14.70;10.32;;;3.20;99.90;;;;;;5074533;28;20088;-72
2020/12/30 04:08:19;;;;;;;18.00;11.68;;;3.40;99.90;;;;;;5074724;28;20084;-72
2020/12/30 04:10:46;;;;;;;18.58;11.18;;;3.40;99.90;;;;;;5074741;28;20385;-71
2020/12/30 04:13:12;;;;;;;21.65;12.38;;;3.30;99.90;;;;;;5065660;28;20080;-71
2020/12/30 04:15:39;;;;;;;19.65;12.25;;;3.10;99.90;;;;;;5054562;28;20088;-72
2020/12/30 04:18:06;;;;;;;20.83;11.65;;;3.10;99.90;;;;;;5054441;28;20087;-72
2020/12/30 04:20:32;;;;;;;19.70;12.75;;;3.00;99.90;;;;;;5054743;28;20077;-72
2020/12/30 04:22:58;;;;;;;24.58;13.07;;;3.00;99.90;;;;;;5054450;28;20088;-71
2020/12/30 04:25:28;;;;;;;21.92;12.88;;;3.00;99.90;;;;;;5061464;28;20048;-71
2020/12/30 04:27:55;;;;;;;21.73;12.00;;;3.00;99.90;;;;;;5058371;28;20052;-72
2020/12/30 04:30:21;;;;;;;19.73;11.95;;;3.00;99.90;;;;;;5073484;28;20076;-71
2020/12/30 04:32:48;;;;;;;20.73;13.45;;;3.00;99.90;;;;;;5066099;28;20048;-71
2020/12/30 04:35:15;;;;;;;23.38;13.55;;;3.00;99.90;;;;;;5054311;28;20556;-71
2020/12/30 04:37:41;;;;;;;24.40;13.68;;;2.90;99.90;;;;;;5055684;28;20072;-72
2020/12/30 04:40:07;;;;;;;24.88;13.27;;;3.00;99.90;;;;;;5054345;28;20127;-72
2020/12/30 04:42:37;;;;;;;24.40;14.05;;;2.90;99.90;;;;;;5054406;28;20061;-72
2020/12/30 04:45:06;;;;;;;21.80;13.13;;;3.00;99.90;;;;;;5066615;28;20458;-72
2020/12/30 04:47:33;;;;;;;22.30;13.60;;;2.90;99.90;;;;;;5056788;28;20053;-72
2020/12/30 04:50:00;;;;;;;20.83;12.90;;;2.90;99.90;;;;;;5053934;28;20053;-72
2020/12/30 04:52:27;;;;;;;22.65;13.02;;;2.90;99.90;;;;;;5071448;28;20080;-72
2020/12/30 04:54:54;;;;;;;26.70;15.18;;;2.80;99.90;;;;;;5066172;28;20494;-72
2020/12/30 04:57:31;;;;;;;24.10;13.30;;;2.70;99.90;;;;;;5065052;28;20468;-71
2020/12/30 05:00:02;;;;;;;27.15;13.95;;;2.70;99.90;;;;;;5053822;28;20629;-71
2020/12/30 05:02:34;;;;;;;28.08;15.05;;;2.60;99.90;;;;;;5065727;28;20052;-72
2020/12/30 05:05:01;;;;;;;28.95;14.80;;;2.60;99.90;;;;;;5073660;28;20059;-72
2020/12/30 05:07:29;;;;;;;27.45;15.02;;;2.60;99.90;;;;;;5073169;28;20401;-72
2020/12/30 05:09:59;;;;;;;28.25;15.95;;;2.50;99.90;;;;;;5063973;28;20056;-72
2020/12/30 05:12:26;;;;;;;29.88;17.10;;;2.50;99.90;;;;;;5053739;28;20072;-72
2020/12/30 05:14:53;;;;;;;28.60;15.55;;;2.50;99.90;;;;;;5053571;28;20497;-72
2020/12/30 05:17:20;;;;;;;34.47;16.15;;;2.50;99.90;;;;;;5054747;28;20048;-72
2020/12/30 05:19:47;;;;;;;31.15;15.80;;;2.50;99.90;;;;;;5062272;28;20400;-71
2020/12/30 05:22:18;;;;;;;26.48;15.13;;;2.50;99.90;;;;;;5073318;28;20415;-72
2020/12/30 05:24:46;;;;;;;28.20;15.75;;;2.50;99.90;;;;;;5059619;28;20133;-71
2020/12/30 05:27:14;;;;;;;29.45;16.35;;;2.40;99.90;;;;;;5053583;28;20049;-71
2020/12/30 05:29:49;;;;;;;32.92;17.08;;;2.50;99.90;;;;;;5053263;28;20084;-71
2020/12/30 05:32:16;;;;;;;27.10;15.60;;;2.50;99.90;;;;;;5053080;28;20053;-71
2020/12/30 05:34:44;;;;;;;31.75;16.67;;;2.50;99.90;;;;;;5053017;28;20045;-72
2020/12/30 05:37:12;;;;;;;29.10;16.60;;;2.50;99.90;;;;;;5053103;28;20444;-71
2020/12/30 05:39:39;;;;;;;33.00;16.95;;;2.40;99.90;;;;;;5052592;28;20059;-71
2020/12/30 05:42:12;;;;;;;35.20;17.00;;;2.50;99.90;;;;;;5068486;28;20052;-72
2020/12/30 05:44:39;;;;;;;33.67;16.35;;;2.40;99.90;;;;;;5072854;28;20055;-72
2020/12/30 05:47:14;;;;;;;29.27;16.67;;;2.40;99.90;;;;;;5071347;28;20095;-72
2020/12/30 05:49:41;;;;;;;30.45;17.58;;;2.50;99.90;;;;;;5052773;28;20124;-71
2020/12/30 05:52:17;;;;;;;35.20;18.05;;;2.50;99.90;;;;;;5059940;28;20408;-71
2020/12/30 05:55:01;;;;;;;30.40;17.13;;;2.50;99.90;;;;;;5061706;28;20080;-71
2020/12/30 05:57:29;;;;;;;34.95;17.52;;;2.60;99.90;;;;;;5071122;28;20080;-72
2020/12/30 05:59:58;;;;;;;28.73;16.50;;;2.60;99.90;;;;;;5073093;28;20113;-71
2020/12/30 06:02:27;;;;;;;27.08;15.57;;;2.70;99.90;;;;;;5072746;28;20079;-71
2020/12/30 06:04:55;;;;;;;28.33;14.98;;;2.70;99.90;;;;;;5072937;28;20453;-71
2020/12/30 06:07:25;;;;;;;27.98;15.93;;;2.80;99.90;;;;;;5072261;28;20045;-71
2020/12/30 06:09:54;;;;;;;26.58;14.85;;;2.80;99.90;;;;;;5072247;28;20475;-71
2020/12/30 06:12:26;;;;;;;24.83;14.45;;;2.90;99.90;;;;;;5072629;28;20084;-71
2020/12/30 06:14:54;;;;;;;23.02;14.23;;;2.90;99.90;;;;;;5072501;28;20534;-71
2020/12/30 06:17:29;;;;;;;22.30;13.93;;;2.90;99.90;;;;;;5072906;28;20045;-72
2020/12/30 06:19:56;;;;;;;22.65;14.40;;;3.00;99.90;;;;;;5072774;28;20057;-71
2020/12/30 06:22:24;;;;;;;22.65;14.07;;;3.10;99.90;;;;;;5072883;28;20481;-71
2020/12/30 06:24:55;;;;;;;20.65;13.43;;;3.20;99.90;;;;;;5056733;28;20056;-71
2020/12/30 06:27:23;;;;;;;20.45;12.98;;;3.30;99.90;;;;;;5052527;28;20366;-71
2020/12/30 06:29:53;;;;;;;22.13;12.88;;;3.40;99.90;;;;;;5052610;28;20080;-71
2020/12/30 06:32:33;;;;;;;20.80;13.43;;;3.40;99.90;;;;;;5052933;28;20138;-71
2020/12/30 06:35:00;;;;;;;19.85;13.27;;;3.50;99.90;;;;;;5055227;28;20057;-71
2020/12/30 06:37:33;;;;;;;20.13;13.20;;;3.60;99.90;;;;;;5052105;28;20052;-71
2020/12/30 06:40:20;;;;;;;19.75;12.80;;;3.60;99.90;;;;;;5052273;28;20452;-71
2020/12/30 06:42:49;;;;;;;19.73;12.30;;;3.70;99.90;;;;;;5052321;28;20056;-71
2020/12/30 06:45:36;;;;;;;19.27;12.73;;;3.80;99.90;;;;;;5052572;28;20053;-71
2020/12/30 06:48:03;;;;;;;20.17;12.23;;;3.90;99.90;;;;;;5052098;28;20520;-71
2020/12/30 06:50:29;;;;;;;19.27;11.88;;;3.90;99.90;;;;;;5055576;28;20051;-71
2020/12/30 06:52:57;;;;;;;16.70;11.95;;;4.10;99.90;;;;;;5066985;28;20107;-71
2020/12/30 06:55:45;;;;;;;18.20;12.00;;;4.10;99.90;;;;;;5055917;28;20053;-71
2020/12/30 06:58:44;;;;;;;16.58;11.98;;;4.10;99.90;;;;;;5056014;28;20049;-71
2020/12/30 07:01:12;;;;;;;17.98;11.77;;;4.20;99.90;;;;;;5055870;28;20111;-71
2020/12/30 07:03:38;;;;;;;16.10;10.90;;;4.10;99.90;;;;;;5056671;28;20070;-71
2020/12/30 07:06:31;;;;;;;17.90;11.90;;;4.30;99.90;;;;;;5055684;28;20060;-71
2020/12/30 07:09:03;;;;;;;17.52;12.23;;;4.40;99.90;;;;;;5055800;28;20413;-71
2020/12/30 07:11:50;;;;;;;17.25;10.93;;;4.40;99.90;;;;;;5056125;28;20106;-71
2020/12/30 07:14:18;;;;;;;18.70;11.73;;;4.40;99.90;;;;;;5055951;28;20076;-71
2020/12/30 07:16:59;;;;;;;18.08;12.07;;;4.30;99.90;;;;;;5055869;28;20052;-70
2020/12/30 07:19:28;;;;;;;14.77;10.93;;;4.40;99.90;;;;;;5055798;28;20053;-70
2020/12/30 07:22:00;;;;;;;16.48;12.27;;;4.40;99.90;;;;;;5055803;28;20106;-70
2020/12/30 07:24:30;;;;;;;15.73;11.48;;;4.40;99.90;;;;;;5056077;28;20489;-70
2020/12/30 07:26:59;;;;;;;16.27;11.50;;;4.40;99.90;;;;;;5055258;28;20080;-70
2020/12/30 07:29:26;;;;;;;16.88;11.50;;;4.50;99.90;;;;;;5055478;28;20096;-70
2020/12/30 07:31:55;;;;;;;16.65;11.18;;;4.40;99.90;;;;;;5055865;28;20081;-70
2020/12/30 07:34:24;;;;;;;17.77;12.25;;;4.40;99.90;;;;;;5055805;28;20048;-70
2020/12/30 07:36:51;;;;;;;17.33;12.27;;;4.40;99.90;;;;;;5055308;28;20052;-70
2020/12/30 07:39:27;;;;;;;17.95;11.68;;;4.50;99.90;;;;;;5055307;28;20049;-70
2020/12/30 07:41:56;;;;;;;16.77;12.00;;;4.30;99.90;;;;;;5055468;28;20072;-70
2020/12/30 07:44:23;;;;;;;19.63;11.90;;;4.30;99.90;;;;;;5055112;28;20049;-70
2020/12/30 07:46:50;;;;;;;19.15;12.05;;;4.50;99.90;;;;;;5055460;28;20102;-70
2020/12/30 07:49:20;;;;;;;15.57;11.98;;;4.50;99.90;;;;;;5055836;28;20080;-71
2020/12/30 07:51:53;;;;;;;15.07;10.50;;;4.50;99.90;;;;;;5055090;28;20508;-71
2020/12/30 07:54:21;;;;;;;16.35;10.55;;;4.60;99.90;;;;;;5055049;28;20081;-71
2020/12/30 07:56:49;;;;;;;17.52;11.95;;;4.50;99.90;;;;;;5055243;28;20052;-71
2020/12/30 07:59:24;;;;;;;15.82;10.82;;;4.50;99.90;;;;;;5055056;28;20049;-71
2020/12/30 08:02:01;;;;;;;17.50;11.88;;;4.60;99.90;;;;;;5054873;28;20049;-70
2020/12/30 08:04:29;;;;;;;17.33;11.95;;;4.60;99.90;;;;;;5054865;28;20091;-71
2020/12/30 08:06:56;;;;;;;19.05;12.38;;;4.60;99.90;;;;;;5054388;28;20092;-70
2020/12/30 08:09:29;;;;;;;16.73;11.68;;;4.60;99.90;;;;;;5054479;28;20057;-70
2020/12/30 08:11:57;;;;;;;16.33;11.15;;;4.60;99.90;;;;;;5055168;28;20111;-71
2020/12/30 08:14:30;;;;;;;15.40;10.95;;;4.60;99.90;;;;;;5054861;28;20071;-71
2020/12/30 08:16:59;;;;;;;16.13;10.88;;;4.70;99.90;;;;;;5054394;28;20095;-70
2020/12/30 08:19:37;;;;;;;15.93;11.80;;;4.70;99.90;;;;;;5054672;28;20068;-70
2020/12/30 08:22:15;;;;;;;16.63;11.23;;;4.70;99.90;;;;;;5054687;28;20399;-70
2020/12/30 08:24:44;;;;;;;16.58;11.10;;;4.70;99.90;;;;;;5054645;28;20095;-71
2020/12/30 08:27:12;;;;;;;15.57;11.18;;;4.70;99.90;;;;;;5054161;28;20052;-71
2020/12/30 08:29:41;;;;;;;18.42;11.20;;;4.70;99.90;;;;;;5055051;28;20122;-71
2020/12/30 08:32:41;;;;;;;15.73;10.15;;;4.80;99.90;;;;;;5054381;28;20086;-71
2020/12/30 08:35:10;;;;;;;17.55;9.60;;;4.80;99.90;;;;;;5054197;28;20055;-71
2020/12/30 08:37:40;;;;;;;18.10;11.30;;;4.70;99.90;;;;;;5054363;28;20072;-71
2020/12/30 08:40:14;;;;;;;14.80;10.02;;;4.70;99.90;;;;;;5054122;28;20049;-71
2020/12/30 08:43:20;;;;;;;12.13;7.80;;;4.70;99.90;;;;;;5053918;28;20528;-71
2020/12/30 08:46:16;;;;;;;15.02;9.93;;;4.70;99.90;;;;;;5063068;28;20483;-70
2020/12/30 08:48:50;;;;;;;15.90;10.50;;;4.60;99.90;;;;;;5054786;28;20049;-71
2020/12/30 08:51:31;;;;;;;16.98;10.88;;;4.70;99.90;;;;;;5054107;28;20083;-71
2020/12/30 08:54:00;;;;;;;17.73;11.38;;;4.80;99.90;;;;;;5053796;28;20053;-71
2020/12/30 08:56:27;;;;;;;16.90;10.40;;;4.80;99.90;;;;;;5054558;28;20048;-71
2020/12/30 08:58:56;;;;;;;16.08;10.00;;;4.90;99.90;;;;;;5053593;28;20114;-70
2020/12/30 09:01:25;;;;;;;13.30;9.68;;;4.70;99.90;;;;;;5053488;28;20118;-70
2020/12/30 09:03:52;;;;;;;18.27;10.48;;;4.70;99.90;;;;;;5053712;28;20398;-70
2020/12/30 09:06:29;;;;;;;16.80;10.95;;;4.90;99.90;;;;;;5053365;28;20390;-70
2020/12/30 09:08:56;;;;;;;15.65;9.68;;;4.90;99.90;;;;;;5053707;28;20048;-70
2020/12/30 09:11:25;;;;;;;14.77;9.63;;;4.90;99.90;;;;;;5055969;28;20106;-70
2020/12/30 09:13:52;;;;;;;15.50;9.75;;;5.00;99.90;;;;;;5061450;28;20087;-70
2020/12/30 09:16:18;;;;;;;16.38;9.68;;;5.10;99.90;;;;;;5056770;28;20061;-70
2020/12/30 09:18:50;;;;;;;13.60;9.35;;;5.10;99.90;;;;;;5071431;28;20095;-70
2020/12/30 09:21:24;;;;;;;12.70;7.90;;;5.20;99.90;;;;;;5073370;28;20041;-70
2020/12/30 09:23:51;;;;;;;13.38;7.93;;;5.10;99.90;;;;;;5068739;28;20041;-70
2020/12/30 09:26:31;;;;;;;15.40;9.68;;;5.00;99.90;;;;;;5053284;28;20052;-70
2020/12/30 09:28:57;;;;;;;13.65;8.90;;;5.00;99.90;;;;;;5055390;28;20080;-70
2020/12/30 09:31:24;;;;;;;14.00;8.07;;;5.00;99.90;;;;;;5073116;28;20084;-70
2020/12/30 09:33:52;;;;;;;14.70;9.52;;;5.10;99.90;;;;;;5073285;28;20053;-70
2020/12/30 09:36:18;;;;;;;15.95;8.70;;;5.00;99.90;;;;;;5073206;28;20200;-70
2020/12/30 09:38:45;;;;;;;16.08;10.25;;;5.20;99.90;;;;;;5066298;28;20077;-70
2020/12/30 09:41:14;;;;;;;16.73;10.32;;;5.10;99.90;;;;;;5052984;28;20089;-70
2020/12/30 09:43:47;;;;;;;14.57;10.02;;;5.30;99.90;;;;;;5052769;28;20053;-70
2020/12/30 09:46:21;;;;;;;15.48;10.38;;;5.30;99.90;;;;;;5052767;28;20075;-70
2020/12/30 09:48:48;;;;;;;17.15;10.13;;;5.40;99.90;;;;;;5052831;28;20045;-71
2020/12/30 09:51:18;;;;;;;17.65;10.15;;;5.50;99.90;;;;;;5067138;28;20507;-70
2020/12/30 09:53:45;;;;;;;15.63;9.05;;;5.70;99.90;;;;;;5062625;28;20053;-70
2020/12/30 09:56:15;;;;;;;14.80;9.80;;;5.50;99.90;;;;;;5067927;28;20057;-70
2020/12/30 09:58:41;;;;;;;17.85;10.48;;;5.60;99.90;;;;;;5052802;28;20053;-70
2020/12/30 10:01:08;;;;;;;16.08;11.52;;;5.50;99.90;;;;;;5061190;28;20055;-70
2020/12/30 10:03:35;;;;;;;15.48;9.50;;;5.70;99.90;;;;;;5067892;28;20449;-71
2020/12/30 10:06:02;;;;;;;15.82;10.15;;;5.50;99.90;;;;;;5069809;28;20091;-71
2020/12/30 10:08:32;;;;;;;17.55;10.90;;;5.50;99.90;;;;;;5064620;28;20041;-71
2020/12/30 10:10:58;;;;;;;18.35;11.65;;;5.60;99.90;;;;;;5058813;28;20095;-71
2020/12/30 10:13:25;;;;;;;16.20;10.65;;;5.60;99.90;;;;;;5051441;28;20052;-72
2020/12/30 10:15:51;;;;;;;15.80;11.65;;;5.70;99.90;;;;;;5051980;28;20452;-72
2020/12/30 10:18:18;;;;;;;17.77;11.23;;;5.70;99.90;;;;;;5053266;28;20135;-71
2020/12/30 10:20:44;;;;;;;19.85;12.43;;;5.70;99.90;;;;;;5052479;28;20110;-71
2020/12/30 10:23:11;;;;;;;19.27;12.32;;;5.60;99.90;;;;;;5052057;28;20110;-71
2020/12/30 10:25:38;;;;;;;22.27;14.38;;;5.50;99.90;;;;;;5055910;28;20049;-71
2020/12/30 10:28:05;;;;;;;19.55;13.25;;;5.50;99.90;;;;;;5058731;28;20064;-71
2020/12/30 10:30:31;;;;;;;17.25;12.50;;;5.50;99.90;;;;;;5056234;28;20128;-71
2020/12/30 10:32:59;;;;;;;16.10;10.75;;;5.60;99.90;;;;;;5056391;28;20052;-71
2020/12/30 10:35:25;;;;;;;18.55;11.32;;;5.50;99.90;;;;;;5058711;28;20059;-71
2020/12/30 10:37:52;;;;;;;16.08;11.02;;;5.40;99.90;;;;;;5056456;28;20088;-71
2020/12/30 10:40:22;;;;;;;14.10;8.43;;;5.50;99.90;;;;;;5056236;28;20529;-71
2020/12/30 10:42:49;;;;;;;15.57;11.13;;;5.50;99.90;;;;;;5069284;28;20178;-71
2020/12/30 10:45:16;;;;;;;14.27;10.02;;;5.50;99.90;;;;;;5062236;28;20398;-71
2020/12/30 10:47:42;;;;;;;13.90;9.68;;;5.40;99.90;;;;;;5057008;28;20048;-71
2020/12/30 10:50:09;;;;;;;15.63;10.80;;;5.30;99.90;;;;;;5057591;28;20053;-71
2020/12/30 10:52:35;;;;;;;16.30;10.05;;;5.20;99.90;;;;;;5056517;28;20044;-71
2020/12/30 10:55:02;;;;;;;15.27;9.40;;;5.10;99.90;;;;;;5056686;28;20076;-71
2020/12/30 10:57:28;;;;;;;16.30;11.15;;;4.90;99.90;;;;;;5056129;28;20187;-71
2020/12/30 10:59:56;;;;;;;20.20;12.30;;;4.80;99.90;;;;;;5059820;28;20508;-71
2020/12/30 11:02:25;;;;;;;24.65;12.27;;;4.70;99.90;;;;;;5069961;28;20464;-71
2020/12/30 11:04:51;;;;;;;16.57;10.40;;;4.80;99.90;;;;;;5058856;28;20052;-69
2020/12/30 11:07:18;;;;;;;17.95;10.57;;;4.70;99.90;;;;;;5059536;28;20495;-69
2020/12/30 11:09:44;;;;;;;15.77;10.85;;;4.80;99.90;;;;;;5060605;28;20527;-69
2020/12/30 11:12:13;;;;;;;15.45;9.88;;;5.00;99.90;;;;;;5055429;28;20049;-69
2020/12/30 11:14:39;;;;;;;15.20;9.30;;;5.00;99.90;;;;;;5055169;28;20170;-68
2020/12/30 11:17:07;;;;;;;20.02;10.38;;;4.90;99.90;;;;;;5060240;28;20040;-69
2020/12/30 11:19:33;;;;;;;13.38;9.32;;;4.80;99.90;;;;;;5057408;28;20056;-66
2020/12/30 11:22:00;;;;;;;16.67;10.50;;;4.70;99.90;;;;;;5054814;28;20417;-69
2020/12/30 11:24:26;;;;;;;14.57;9.52;;;4.70;99.90;;;;;;5059598;28;20091;-69
2020/12/30 11:26:53;;;;;;;13.00;9.27;;;4.70;99.90;;;;;;5056067;28;20358;-69
2020/12/30 11:29:21;;;;;;;16.33;9.73;;;4.60;99.90;;;;;;5055227;28;20048;-69
2020/12/30 11:31:48;;;;;;;13.02;9.35;;;4.80;99.90;;;;;;5055427;28;20059;-69
2020/12/30 11:34:16;;;;;;;13.23;9.00;;;4.90;99.90;;;;;;5055559;28;20135;-69
2020/12/30 11:36:44;;;;;;;14.63;10.25;;;5.00;99.90;;;;;;5055210;28;20041;-69
2020/12/30 11:39:10;;;;;;;13.80;9.48;;;5.00;99.90;;;;;;5055310;28;20059;-69
2020/12/30 11:41:37;;;;;;;14.65;9.63;;;5.00;99.90;;;;;;5055449;28;20052;-69
2020/12/30 11:44:06;;;;;;;13.43;8.25;;;5.20;99.90;;;;;;5054953;28;20477;-69
2020/12/30 11:46:33;;;;;;;12.82;8.52;;;5.00;99.90;;;;;;5055055;28;20168;-69
2020/12/30 11:48:59;;;;;;;14.40;8.55;;;5.00;99.90;;;;;;5055311;28;20053;-69
2020/12/30 11:51:29;;;;;;;13.48;9.30;;;5.00;99.90;;;;;;5055247;28;20111;-69
2020/12/30 11:53:56;;;;;;;;;;;5.00;99.90;;;;;;5056190;28;20049;-69
2020/12/30 11:56:23;;;;;;;14.52;10.65;;;5.10;99.90;;;;;;5054940;28;19982;-69
2020/12/30 11:58:49;;;;;;;15.73;10.13;;;5.30;99.90;;;;;;5054965;28;20438;-69
2020/12/30 12:01:17;;;;;;;15.95;9.90;;;5.50;99.90;;;;;;5070014;28;20480;-69
2020/12/30 12:03:44;;;;;;;16.90;10.23;;;5.60;99.90;;;;;;5074780;28;20052;-69
2020/12/30 12:06:11;;;;;;;14.45;8.43;;;5.70;99.90;;;;;;5074605;28;20139;-69
2020/12/30 12:08:39;;;;;;;17.73;11.95;;;5.80;99.90;;;;;;5073808;28;20076;-69
2020/12/30 12:11:05;;;;;;;16.83;11.45;;;5.90;99.90;;;;;;5074644;28;20488;-69
2020/12/30 12:13:32;;;;;;;17.35;12.13;;;6.20;99.90;;;;;;5074656;28;20059;-69
2020/12/30 12:15:59;;;;;;;19.23;10.75;;;6.20;99.90;;;;;;5074477;28;20080;-69
2020/12/30 12:18:25;;;;;;;16.02;9.75;;;6.20;99.90;;;;;;5074718;28;20052;-69
2020/12/30 12:20:52;;;;;;;16.30;10.65;;;5.80;99.90;;;;;;5074763;28;20052;-69
2020/12/30 12:23:19;;;;;;;18.75;11.60;;;5.80;99.90;;;;;;5061643;28;20080;-69
2020/12/30 12:25:46;;;;;;;14.48;9.57;;;6.00;99.90;;;;;;5054549;28;20060;-69
2020/12/30 12:28:12;;;;;;;15.77;10.52;;;6.00;99.90;;;;;;5054322;28;20095;-69
2020/12/30 12:30:42;;;;;;;15.75;10.18;;;6.10;99.90;;;;;;5054500;28;20136;-69
2020/12/30 12:33:09;;;;;;;15.38;9.82;;;5.90;99.90;;;;;;5054450;28;20080;-69
2020/12/30 12:35:35;;;;;;;16.70;10.73;;;5.70;99.90;;;;;;5054133;28;20103;-69
2020/12/30 12:38:07;;;;;;;15.13;9.95;;;5.80;99.90;;;;;;5054085;28;20077;-69
2020/12/30 12:40:34;;;;;;;15.32;10.98;;;5.80;99.90;;;;;;5055963;28;20456;-69
2020/12/30 12:43:02;;;;;;;14.63;9.88;;;5.80;99.90;;;;;;5055892;28;20470;-69
2020/12/30 12:45:30;;;;;;;14.73;8.98;;;5.70;99.90;;;;;;5069419;28;20055;-69
2020/12/30 12:47:57;;;;;;;16.58;10.77;;;5.60;99.90;;;;;;5053855;28;20383;-69
2020/12/30 12:50:23;;;;;;;14.48;10.05;;;5.70;99.90;;;;;;5053166;28;20142;-69
2020/12/30 12:52:50;;;;;;;18.10;12.35;;;5.50;99.90;;;;;;5053688;28;20080;-69